createdAt,value
2018-10-02T00:00:54.915Z,101298.16
2018-10-02T00:01:58.379Z,101305.31
2018-10-02T00:03:01.807Z,101296.54
2018-10-02T00:04:05.262Z,101302.38
2018-10-02T00:05:08.680Z,101298.24
2018-10-02T00:06:12.173Z,101301.32
2018-10-02T00:07:15.619Z,101297.50
2018-10-02T00:08:19.085Z,101301.39
2018-10-02T00:09:22.571Z,101307.20
2018-10-02T00:10:25.978Z,101302.58
2018-10-02T00:11:34.587Z,101299.81
2018-10-02T00:12:43.319Z,101307.00
2018-10-02T00:13:52.160Z,101304.00
2018-10-02T00:14:55.585Z,101308.21
2018-10-02T00:15:59.024Z,101304.95
2018-10-02T00:17:02.472Z,101304.71
2018-10-02T00:18:06.246Z,101298.14
2018-10-02T00:19:09.691Z,101301.46
2018-10-02T00:20:13.133Z,101295.70
2018-10-02T00:21:16.595Z,101299.59
2018-10-02T00:22:20.075Z,101301.26
2018-10-02T00:23:23.528Z,101295.25
2018-10-02T00:24:26.927Z,101295.00
2018-10-02T00:25:30.368Z,101290.62
2018-10-02T00:26:33.852Z,101290.69
2018-10-02T00:27:37.293Z,101292.07
2018-10-02T00:28:40.711Z,101293.20
2018-10-02T00:29:44.123Z,101299.85
2018-10-02T00:30:47.728Z,101293.27
2018-10-02T00:31:51.204Z,101293.84
2018-10-02T00:32:54.653Z,101287.52
2018-10-02T00:33:58.265Z,101295.39
2018-10-02T00:35:01.726Z,101294.19
2018-10-02T00:36:05.392Z,101294.88
2018-10-02T00:37:09.126Z,101286.78
2018-10-02T00:38:12.573Z,101284.12
2018-10-02T00:39:15.984Z,101281.27
2018-10-02T00:40:19.434Z,101288.02
2018-10-02T00:41:22.873Z,101287.86
2018-10-02T00:42:26.391Z,101286.08
2018-10-02T00:43:29.824Z,101281.33
2018-10-02T00:44:33.257Z,101279.06
2018-10-02T00:45:36.987Z,101273.78
2018-10-02T00:46:40.442Z,101278.66
2018-10-02T00:47:43.874Z,101275.66
2018-10-02T00:48:47.325Z,101275.09
2018-10-02T00:49:50.726Z,101269.81
2018-10-02T00:50:54.185Z,101282.23
2018-10-02T00:51:57.600Z,101277.28
2018-10-02T00:53:01.065Z,101280.03
2018-10-02T00:54:04.505Z,101283.94
2018-10-02T00:55:07.960Z,101277.36
2018-10-02T00:56:11.393Z,101276.78
2018-10-02T00:57:14.792Z,101273.30
2018-10-02T00:58:18.294Z,101270.53
2018-10-02T00:59:21.751Z,101271.42
2018-10-02T01:00:25.158Z,101265.38
2018-10-02T01:01:28.572Z,101258.00
2018-10-02T01:02:31.984Z,101260.27
2018-10-02T01:03:35.428Z,101258.96
2018-10-02T01:04:38.885Z,101258.72
2018-10-02T01:05:42.300Z,101258.23
2018-10-02T01:06:45.758Z,101262.94
2018-10-02T01:07:49.247Z,101262.45
2018-10-02T01:08:52.676Z,101263.58
2018-10-02T01:09:56.123Z,101268.85
2018-10-02T01:10:59.562Z,101266.95
2018-10-02T01:12:03.003Z,101266.14
2018-10-02T01:13:07.158Z,101266.19
2018-10-02T01:14:10.625Z,101269.51
2018-10-02T01:15:14.051Z,101264.31
2018-10-02T01:16:17.498Z,101265.52
2018-10-02T01:17:20.902Z,101264.14
2018-10-02T01:18:24.327Z,101260.33
2018-10-02T01:19:27.758Z,101262.59
2018-10-02T01:20:31.224Z,101268.97
2018-10-02T01:21:35.042Z,101270.10
2018-10-02T01:22:38.617Z,101264.91
2018-10-02T01:23:42.095Z,101263.03
2018-10-02T01:24:45.571Z,101263.92
2018-10-02T01:25:48.981Z,101263.67
2018-10-02T01:26:52.422Z,101262.69
2018-10-02T01:27:55.854Z,101274.78
2018-10-02T01:28:59.403Z,101271.53
2018-10-02T01:30:02.991Z,101261.63
2018-10-02T01:31:06.392Z,101262.73
2018-10-02T01:32:09.829Z,101262.45
2018-10-02T01:33:13.245Z,101265.77
2018-10-02T01:34:16.710Z,101257.10
2018-10-02T01:35:20.139Z,101261.09
2018-10-02T01:36:23.655Z,101260.97
2018-10-02T01:37:27.929Z,101267.47
2018-10-02T01:38:31.313Z,101264.31
2018-10-02T01:39:34.723Z,101261.76
2018-10-02T01:40:38.263Z,101262.52
2018-10-02T01:41:41.698Z,101261.31
2018-10-02T01:42:45.107Z,101260.98
2018-10-02T01:43:48.514Z,101255.39
2018-10-02T01:44:51.928Z,101253.69
2018-10-02T01:45:55.400Z,101254.10
2018-10-02T01:46:58.932Z,101258.81
2018-10-02T01:48:02.346Z,101256.86
2018-10-02T01:49:05.764Z,101255.48
2018-10-02T01:50:09.216Z,101254.91
2018-10-02T01:51:12.620Z,101259.05
2018-10-02T01:52:15.999Z,101255.23
2018-10-02T01:53:19.482Z,101251.17
2018-10-02T01:54:22.932Z,101252.88
2018-10-02T01:55:26.346Z,101248.49
2018-10-02T01:56:29.805Z,101241.92
2018-10-02T01:57:33.261Z,101236.97
2018-10-02T01:58:36.687Z,101232.70
2018-10-02T01:59:40.186Z,101238.98
2018-10-02T02:00:43.629Z,101233.80
2018-10-02T02:01:47.222Z,101231.33
2018-10-02T02:02:50.681Z,101236.60
2018-10-02T02:03:54.137Z,101234.98
2018-10-02T02:04:57.602Z,101226.18
2018-10-02T02:06:01.020Z,101232.59
2018-10-02T02:07:04.506Z,101228.20
2018-10-02T02:08:07.996Z,101225.77
2018-10-02T02:09:11.436Z,101226.34
2018-10-02T02:10:14.826Z,101223.09
2018-10-02T02:11:18.285Z,101222.27
2018-10-02T02:12:21.678Z,101219.84
2018-10-02T02:13:25.095Z,101222.35
2018-10-02T02:14:28.685Z,101223.20
2018-10-02T02:15:32.094Z,101221.58
2018-10-02T02:16:35.579Z,101221.34
2018-10-02T02:17:39.036Z,101220.53
2018-10-02T02:18:42.468Z,101218.66
2018-10-02T02:19:45.862Z,101221.17
2018-10-02T02:20:49.481Z,101217.35
2018-10-02T02:21:52.975Z,101215.48
2018-10-02T02:22:56.436Z,101213.86
2018-10-02T02:23:59.883Z,101210.86
2018-10-02T02:25:03.309Z,101210.61
2018-10-02T02:26:06.772Z,101213.37
2018-10-02T02:27:10.242Z,101216.13
2018-10-02T02:28:13.679Z,101215.48
2018-10-02T02:29:17.162Z,101218.34
2018-10-02T02:30:20.617Z,101211.36
2018-10-02T02:31:24.032Z,101208.89
2018-10-02T02:32:27.465Z,101211.25
2018-10-02T02:33:30.923Z,101214.16
2018-10-02T02:34:34.368Z,101209.05
2018-10-02T02:35:37.801Z,101210.34
2018-10-02T02:36:41.249Z,101208.56
2018-10-02T02:37:44.678Z,101202.67
2018-10-02T02:38:48.131Z,101204.45
2018-10-02T02:39:51.561Z,101206.08
2018-10-02T02:40:54.971Z,101207.13
2018-10-02T02:41:58.380Z,101215.66
2018-10-02T02:43:01.828Z,101210.70
2018-10-02T02:44:05.291Z,101209.89
2018-10-02T02:45:08.804Z,101215.17
2018-10-02T02:46:12.226Z,101207.22
2018-10-02T02:47:20.915Z,101209.73
2018-10-02T02:48:29.587Z,101209.25
2018-10-02T02:49:38.354Z,101208.76
2018-10-02T02:50:46.511Z,101201.61
2018-10-02T02:51:50.005Z,101198.09
2018-10-02T02:52:57.279Z,101194.52
2018-10-02T02:54:00.808Z,101190.46
2018-10-02T02:55:04.310Z,101177.64
2018-10-02T02:56:07.923Z,101184.86
2018-10-02T02:57:11.313Z,101177.16
2018-10-02T02:58:14.893Z,101172.77
2018-10-02T02:59:18.323Z,101175.28
2018-10-02T03:00:21.816Z,101184.12
2018-10-02T03:01:25.188Z,101178.09
2018-10-02T03:02:28.592Z,101178.66
2018-10-02T03:03:32.009Z,101177.04
2018-10-02T03:04:35.433Z,101170.76
2018-10-02T03:05:38.879Z,101168.89
2018-10-02T03:06:42.308Z,101172.22
2018-10-02T03:07:45.745Z,101168.41
2018-10-02T03:08:49.207Z,101169.30
2018-10-02T03:09:52.625Z,101168.48
2018-10-02T03:10:56.014Z,101156.15
2018-10-02T03:11:59.546Z,101165.23
2018-10-02T03:13:02.968Z,101175.45
2018-10-02T03:14:06.401Z,101178.75
2018-10-02T03:15:09.827Z,101176.31
2018-10-02T03:16:13.311Z,101168.13
2018-10-02T03:17:16.736Z,101166.81
2018-10-02T03:18:20.163Z,101162.20
2018-10-02T03:19:23.588Z,101164.95
2018-10-02T03:20:26.989Z,101163.65
2018-10-02T03:21:30.422Z,101158.13
2018-10-02T03:22:33.867Z,101158.21
2018-10-02T03:23:37.304Z,101156.56
2018-10-02T03:24:40.807Z,101157.69
2018-10-02T03:25:44.228Z,101154.37
2018-10-02T03:26:47.664Z,101155.18
2018-10-02T03:27:51.120Z,101157.33
2018-10-02T03:28:54.529Z,101151.41
2018-10-02T03:29:57.934Z,101150.44
2018-10-02T03:31:01.354Z,101153.88
2018-10-02T03:32:04.814Z,101152.58
2018-10-02T03:33:08.374Z,101151.64
2018-10-02T03:34:11.774Z,101145.50
2018-10-02T03:35:15.189Z,101150.94
2018-10-02T03:36:18.650Z,101151.42
2018-10-02T03:37:22.076Z,101146.64
2018-10-02T03:38:25.479Z,101140.14
2018-10-02T03:39:28.878Z,101143.71
2018-10-02T03:40:32.297Z,101145.09
2018-10-02T03:41:35.744Z,101145.09
2018-10-02T03:42:39.172Z,101140.38
2018-10-02T03:43:42.591Z,101155.84
2018-10-02T03:44:46.021Z,101159.13
2018-10-02T03:45:49.491Z,101157.75
2018-10-02T03:46:52.933Z,101146.47
2018-10-02T03:47:56.356Z,101142.09
2018-10-02T03:48:59.808Z,101136.89
2018-10-02T03:50:03.244Z,101133.08
2018-10-02T03:51:06.714Z,101133.73
2018-10-02T03:52:10.152Z,101138.77
2018-10-02T03:53:13.557Z,101140.72
2018-10-02T03:54:16.981Z,101145.98
2018-10-02T03:55:20.443Z,101144.37
2018-10-02T03:56:23.876Z,101145.26
2018-10-02T03:57:27.308Z,101144.74
2018-10-02T03:58:30.715Z,101146.13
2018-10-02T03:59:34.149Z,101143.41
2018-10-02T04:00:37.577Z,101136.84
2018-10-02T04:01:40.963Z,101133.03
2018-10-02T04:02:44.415Z,101134.73
2018-10-02T04:03:47.938Z,101127.59
2018-10-02T04:04:51.375Z,101134.81
2018-10-02T04:05:54.817Z,101129.62
2018-10-02T04:06:58.256Z,101126.34
2018-10-02T04:08:01.663Z,101121.15
2018-10-02T04:09:08.579Z,101120.09
2018-10-02T04:10:12.017Z,101120.66
2018-10-02T04:11:15.468Z,101114.91
2018-10-02T04:12:18.925Z,101113.04
2018-10-02T04:13:22.480Z,101110.28
2018-10-02T04:14:25.824Z,101109.47
2018-10-02T04:15:29.329Z,101102.89
2018-10-02T04:16:32.913Z,101105.98
2018-10-02T04:17:36.363Z,101111.81
2018-10-02T04:18:39.804Z,101114.33
2018-10-02T04:19:43.354Z,101117.09
2018-10-02T04:20:47.068Z,101115.47
2018-10-02T04:21:50.477Z,101120.66
2018-10-02T04:22:53.916Z,101112.80
2018-10-02T04:23:57.336Z,101111.36
2018-10-02T04:25:00.755Z,101105.69
2018-10-02T04:26:04.423Z,101094.32
2018-10-02T04:27:07.834Z,101102.22
2018-10-02T04:28:11.241Z,101091.05
2018-10-02T04:29:14.659Z,101089.25
2018-10-02T04:30:18.126Z,101087.31
2018-10-02T04:31:21.634Z,101083.33
2018-10-02T04:32:25.035Z,101076.34
2018-10-02T04:33:28.529Z,101068.34
2018-10-02T04:34:32.084Z,101070.68
2018-10-02T04:35:35.598Z,101073.35
2018-10-02T04:36:39.279Z,101073.59
2018-10-02T04:37:42.733Z,101069.55
2018-10-02T04:38:46.284Z,101073.92
2018-10-02T04:39:50.127Z,101072.55
2018-10-02T04:40:53.589Z,101071.25
2018-10-02T04:41:57.189Z,101068.81
2018-10-02T04:43:00.641Z,101071.09
2018-10-02T04:44:04.278Z,101070.02
2018-10-02T04:45:07.996Z,101071.15
2018-10-02T04:46:11.516Z,101060.20
2018-10-02T04:47:14.940Z,101053.95
2018-10-02T04:48:18.377Z,101050.71
2018-10-02T04:49:21.931Z,101047.47
2018-10-02T04:50:25.884Z,101042.28
2018-10-02T04:51:29.313Z,101041.80
2018-10-02T04:52:32.717Z,101037.14
2018-10-02T04:53:36.457Z,101030.54
2018-10-02T04:54:39.920Z,101030.87
2018-10-02T04:55:43.405Z,101032.58
2018-10-02T04:56:46.802Z,101036.23
2018-10-02T04:57:50.246Z,101032.42
2018-10-02T04:58:53.687Z,101034.85
2018-10-02T04:59:57.194Z,101034.04
2018-10-02T05:01:01.179Z,101035.98
2018-10-02T05:02:04.737Z,101031.37
2018-10-02T05:03:08.189Z,101035.50
2018-10-02T05:04:11.700Z,101042.97
2018-10-02T05:05:15.196Z,101041.92
2018-10-02T05:06:18.663Z,101036.16
2018-10-02T05:07:22.125Z,101041.97
2018-10-02T05:08:25.693Z,101041.16
2018-10-02T05:09:29.114Z,101046.44
2018-10-02T05:10:32.641Z,101047.57
2018-10-02T05:11:36.113Z,101044.00
2018-10-02T05:12:39.538Z,101049.52
2018-10-02T05:13:43.112Z,101046.84
2018-10-02T05:14:46.560Z,101051.55
2018-10-02T05:15:49.997Z,101044.98
2018-10-02T05:16:53.539Z,101052.20
2018-10-02T05:17:57.010Z,101050.58
2018-10-02T05:19:00.589Z,101051.72
2018-10-02T05:20:04.125Z,101040.20
2018-10-02T05:21:07.542Z,101041.63
2018-10-02T05:22:10.961Z,101045.52
2018-10-02T05:23:14.512Z,101045.71
2018-10-02T05:24:17.961Z,101051.14
2018-10-02T05:25:22.177Z,101041.73
2018-10-02T05:26:25.587Z,101046.03
2018-10-02T05:27:29.049Z,101039.95
2018-10-02T05:28:32.498Z,101040.92
2018-10-02T05:29:35.930Z,101038.91
2018-10-02T05:30:39.350Z,101039.41
2018-10-02T05:31:42.785Z,101035.42
2018-10-02T05:32:46.210Z,101022.44
2018-10-02T05:33:49.673Z,101025.44
2018-10-02T05:34:53.159Z,101027.63
2018-10-02T05:35:56.533Z,101033.95
2018-10-02T05:36:59.964Z,101032.81
2018-10-02T05:38:03.382Z,101021.55
2018-10-02T05:39:08.206Z,101028.44
2018-10-02T05:40:11.643Z,101026.25
2018-10-02T05:41:15.104Z,101030.14
2018-10-02T05:42:18.576Z,101032.42
2018-10-02T05:43:22.006Z,101034.04
2018-10-02T05:44:25.431Z,101031.37
2018-10-02T05:45:29.024Z,101035.27
2018-10-02T05:46:32.489Z,101035.02
2018-10-02T05:47:35.921Z,101034.78
2018-10-02T05:48:39.334Z,101032.31
2018-10-02T05:49:42.794Z,101032.08
2018-10-02T05:50:46.349Z,101024.94
2018-10-02T05:51:49.760Z,101015.61
2018-10-02T05:52:53.211Z,101009.94
2018-10-02T05:53:56.640Z,101000.28
2018-10-02T05:55:00.013Z,100996.23
2018-10-02T05:56:03.477Z,100999.56
2018-10-02T05:57:06.999Z,101002.41
2018-10-02T05:58:10.509Z,101016.76
2018-10-02T05:59:14.038Z,101022.56
2018-10-02T06:00:17.524Z,101014.05
2018-10-02T06:01:21.022Z,101016.08
2018-10-02T06:02:27.226Z,101021.59
2018-10-02T06:03:30.686Z,101013.65
2018-10-02T06:04:34.119Z,101013.16
2018-10-02T06:05:37.533Z,101015.36
2018-10-02T06:06:41.074Z,101013.98
2018-10-02T06:07:44.533Z,101011.70
2018-10-02T06:08:47.951Z,101012.67
2018-10-02T06:09:51.481Z,101015.78
2018-10-02T06:10:54.897Z,101016.27
2018-10-02T06:11:58.357Z,101023.56
2018-10-02T06:13:01.814Z,101017.95
2018-10-02T06:14:05.258Z,101023.91
2018-10-02T06:15:08.737Z,101020.01
2018-10-02T06:16:12.167Z,101007.50
2018-10-02T06:17:15.602Z,101008.31
2018-10-02T06:18:19.021Z,101008.31
2018-10-02T06:19:22.451Z,101004.98
2018-10-02T06:20:25.924Z,101000.61
2018-10-02T06:21:29.688Z,101004.42
2018-10-02T06:22:33.326Z,101001.91
2018-10-02T06:23:36.869Z,100999.71
2018-10-02T06:24:40.698Z,100996.71
2018-10-02T06:25:44.068Z,100996.47
2018-10-02T06:26:47.581Z,100988.38
2018-10-02T06:27:51.010Z,100985.19
2018-10-02T06:28:54.463Z,100986.16
2018-10-02T06:29:57.880Z,100985.77
2018-10-02T06:31:01.310Z,100978.77
2018-10-02T06:32:05.269Z,100978.38
2018-10-02T06:33:08.746Z,100977.97
2018-10-02T06:34:12.175Z,100982.48
2018-10-02T06:35:15.604Z,100981.27
2018-10-02T06:36:19.055Z,100979.81
2018-10-02T06:37:22.537Z,100975.25
2018-10-02T06:38:26.047Z,100968.77
2018-10-02T06:39:30.747Z,100969.58
2018-10-02T06:40:34.216Z,100968.66
2018-10-02T06:41:37.724Z,100973.52
2018-10-02T06:42:41.161Z,100973.84
2018-10-02T06:43:44.738Z,100973.13
2018-10-02T06:44:48.263Z,100979.84
2018-10-02T06:45:51.668Z,100978.55
2018-10-02T06:46:55.191Z,100976.11
2018-10-02T06:47:58.630Z,100970.77
2018-10-02T06:49:02.157Z,100979.52
2018-10-02T06:50:05.660Z,100979.12
2018-10-02T06:51:09.165Z,100978.26
2018-10-02T06:52:12.694Z,100979.87
2018-10-02T06:53:16.073Z,100978.75
2018-10-02T06:54:19.622Z,100978.26
2018-10-02T06:55:23.064Z,100981.02
2018-10-02T06:56:26.482Z,100982.87
2018-10-02T06:57:29.940Z,100994.09
2018-10-02T06:58:33.398Z,100997.83
2018-10-02T06:59:36.818Z,100998.64
2018-10-02T07:00:40.443Z,100992.48
2018-10-02T07:01:43.880Z,101000.38
2018-10-02T07:02:47.343Z,100994.54
2018-10-02T07:03:50.979Z,100990.89
2018-10-02T07:04:54.493Z,100983.92
2018-10-02T07:05:57.966Z,100982.79
2018-10-02T07:07:01.389Z,100986.03
2018-10-02T07:08:04.856Z,100986.84
2018-10-02T07:09:09.948Z,100984.09
2018-10-02T07:10:13.378Z,100988.22
2018-10-02T07:11:16.824Z,100989.84
2018-10-02T07:12:20.316Z,100982.70
2018-10-02T07:13:23.811Z,100983.52
2018-10-02T07:14:27.327Z,100976.95
2018-10-02T07:15:30.739Z,100967.06
2018-10-02T07:16:34.212Z,100964.06
2018-10-02T07:17:37.863Z,100959.36
2018-10-02T07:18:41.103Z,100957.73
2018-10-02T07:19:44.552Z,100952.55
2018-10-02T07:20:48.009Z,100960.58
2018-10-02T07:21:51.439Z,100956.20
2018-10-02T07:22:54.905Z,100959.52
2018-10-02T07:23:58.348Z,100954.58
2018-10-02T07:25:01.751Z,100961.23
2018-10-02T07:26:05.190Z,100957.42
2018-10-02T07:27:08.813Z,100957.98
2018-10-02T07:28:12.178Z,100959.66
2018-10-02T07:29:15.635Z,100962.17
2018-10-02T07:30:19.115Z,100966.06
2018-10-02T07:31:22.522Z,100966.95
2018-10-02T07:32:26.017Z,100966.70
2018-10-02T07:33:29.411Z,100970.84
2018-10-02T07:34:32.894Z,100958.20
2018-10-02T07:35:36.345Z,100959.09
2018-10-02T07:36:39.820Z,100951.95
2018-10-02T07:37:43.214Z,100952.03
2018-10-02T07:38:46.724Z,100952.84
2018-10-02T07:39:50.253Z,100948.20
2018-10-02T07:40:53.938Z,100944.92
2018-10-02T07:41:57.434Z,100943.30
2018-10-02T07:43:00.824Z,100948.00
2018-10-02T07:44:04.299Z,100945.57
2018-10-02T07:45:07.873Z,100944.77
2018-10-02T07:46:11.231Z,100945.65
2018-10-02T07:47:14.644Z,100945.65
2018-10-02T07:48:18.076Z,100942.66
2018-10-02T07:49:21.533Z,100948.48
2018-10-02T07:50:24.962Z,100945.48
2018-10-02T07:51:28.387Z,100935.60
2018-10-02T07:52:31.831Z,100925.72
2018-10-02T07:53:35.456Z,100929.28
2018-10-02T07:54:38.969Z,100926.61
2018-10-02T07:55:42.371Z,100929.36
2018-10-02T07:56:45.899Z,100922.77
2018-10-02T07:57:49.618Z,100924.71
2018-10-02T07:58:53.076Z,100910.38
2018-10-02T07:59:56.623Z,100907.94
2018-10-02T08:01:00.025Z,100912.40
2018-10-02T08:02:03.509Z,100914.09
2018-10-02T08:03:07.036Z,100923.73
2018-10-02T08:04:10.489Z,100921.30
2018-10-02T08:05:14.187Z,100925.44
2018-10-02T08:06:17.625Z,100933.70
2018-10-02T08:07:21.105Z,100935.64
2018-10-02T08:08:24.568Z,100939.53
2018-10-02T08:09:28.003Z,100937.09
2018-10-02T08:10:31.444Z,100939.04
2018-10-02T08:11:34.946Z,100933.85
2018-10-02T08:12:38.381Z,100940.17
2018-10-02T08:13:41.840Z,100942.44
2018-10-02T08:14:45.361Z,100941.30
2018-10-02T08:15:48.888Z,100947.13
2018-10-02T08:16:52.390Z,100944.42
2018-10-02T08:17:55.896Z,100938.92
2018-10-02T08:18:59.242Z,100938.67
2018-10-02T08:20:02.964Z,100941.99
2018-10-02T08:21:06.376Z,100944.50
2018-10-02T08:22:09.834Z,100951.14
2018-10-02T08:23:13.593Z,100949.77
2018-10-02T08:24:17.035Z,100950.90
2018-10-02T08:25:20.501Z,100953.08
2018-10-02T08:26:24.003Z,100945.71
2018-10-02T08:27:27.468Z,100958.10
2018-10-02T08:28:30.885Z,100946.84
2018-10-02T08:29:34.384Z,100945.22
2018-10-02T08:30:37.778Z,100938.09
2018-10-02T08:31:41.332Z,100941.98
2018-10-02T08:32:44.830Z,100939.23
2018-10-02T08:33:48.245Z,100941.98
2018-10-02T08:34:51.722Z,100945.86
2018-10-02T08:35:55.313Z,100942.86
2018-10-02T08:36:58.636Z,100945.62
2018-10-02T08:38:02.082Z,100941.24
2018-10-02T08:39:08.014Z,100938.22
2018-10-02T08:40:11.488Z,100931.33
2018-10-02T08:41:14.911Z,100934.97
2018-10-02T08:42:18.493Z,100941.28
2018-10-02T08:43:22.005Z,100944.61
2018-10-02T08:44:25.533Z,100940.23
2018-10-02T08:45:28.960Z,100930.92
2018-10-02T08:46:32.407Z,100932.86
2018-10-02T08:47:35.870Z,100928.73
2018-10-02T08:48:39.322Z,100933.18
2018-10-02T08:49:42.791Z,100940.06
2018-10-02T08:50:46.266Z,100938.20
2018-10-02T08:51:49.781Z,100945.89
2018-10-02T08:52:53.288Z,100944.83
2018-10-02T08:53:56.829Z,100946.20
2018-10-02T08:55:00.271Z,100947.91
2018-10-02T08:56:03.705Z,100943.53
2018-10-02T08:57:07.387Z,100949.03
2018-10-02T08:58:10.783Z,100939.16
2018-10-02T08:59:14.231Z,100943.84
2018-10-02T09:00:17.845Z,100933.94
2018-10-02T09:01:21.243Z,100938.63
2018-10-02T09:02:24.757Z,100936.20
2018-10-02T09:03:28.203Z,100931.51
2018-10-02T09:04:31.676Z,100931.02
2018-10-02T09:05:35.148Z,100931.58
2018-10-02T09:06:38.604Z,100933.52
2018-10-02T09:07:42.084Z,100935.46
2018-10-02T09:08:45.555Z,100934.90
2018-10-02T09:09:48.973Z,100932.47
2018-10-02T09:10:52.650Z,100938.53
2018-10-02T09:11:56.062Z,100934.16
2018-10-02T09:12:59.558Z,100932.78
2018-10-02T09:14:02.959Z,100931.97
2018-10-02T09:15:12.155Z,100932.54
2018-10-02T09:16:10.134Z,100935.05
2018-10-02T09:17:13.540Z,100926.47
2018-10-02T09:18:17.066Z,100926.64
2018-10-02T09:19:20.506Z,100920.64
2018-10-02T09:20:24.166Z,100918.04
2018-10-02T09:21:27.677Z,100917.17
2018-10-02T09:22:31.105Z,100917.08
2018-10-02T09:23:35.114Z,100917.30
2018-10-02T09:24:38.650Z,100915.29
2018-10-02T09:25:42.070Z,100915.18
2018-10-02T09:26:45.560Z,100916.70
2018-10-02T09:27:49.062Z,100918.00
2018-10-02T09:28:52.504Z,100913.76
2018-10-02T09:30:01.144Z,100912.69
2018-10-02T09:31:10.000Z,100911.48
2018-10-02T09:32:19.041Z,100912.61
2018-10-02T09:33:27.949Z,100912.73
2018-10-02T09:34:36.612Z,100912.86
2018-10-02T09:35:45.482Z,100915.05
2018-10-02T09:36:54.697Z,100915.02
2018-10-02T09:38:03.696Z,100921.11
2018-10-02T09:39:13.970Z,100914.90
2018-10-02T09:40:23.598Z,100916.95
2018-10-02T09:42:34.196Z,100910.55
2018-10-02T09:43:43.921Z,100914.98
2018-10-02T09:44:47.390Z,100914.92
2018-10-02T09:45:51.517Z,100913.52
2018-10-02T09:46:55.500Z,100917.52
2018-10-02T09:48:03.331Z,100913.28
2018-10-02T09:49:06.921Z,100917.55
2018-10-02T09:50:10.512Z,100917.39
2018-10-02T09:51:13.957Z,100919.98
2018-10-02T09:52:18.253Z,100913.17
2018-10-02T09:53:21.701Z,100906.38
2018-10-02T09:54:25.284Z,100910.80
2018-10-02T09:55:28.710Z,100901.81
2018-10-02T09:56:45.363Z,100902.13
2018-10-02T09:57:48.812Z,100903.55
2018-10-02T09:58:52.260Z,100906.05
2018-10-02T09:59:55.694Z,100908.83
2018-10-02T10:01:04.507Z,100902.21
2018-10-02T10:02:14.939Z,100903.89
2018-10-02T10:03:18.423Z,100902.09
2018-10-02T10:04:21.912Z,100907.32
2018-10-02T10:05:25.411Z,100894.62
2018-10-02T10:06:28.889Z,100899.44
2018-10-02T10:07:32.336Z,100895.56
2018-10-02T10:08:36.226Z,100899.92
2018-10-02T10:09:39.798Z,100899.47
2018-10-02T10:10:43.234Z,100906.02
2018-10-02T10:11:46.764Z,100910.98
2018-10-02T10:12:50.300Z,100908.37
2018-10-02T10:13:53.840Z,100913.98
2018-10-02T10:14:57.259Z,100914.47
2018-10-02T10:16:00.657Z,100911.87
2018-10-02T10:17:04.168Z,100912.92
2018-10-02T10:18:07.692Z,100915.26
2018-10-02T10:19:11.100Z,100902.95
2018-10-02T10:20:14.535Z,100906.25
2018-10-02T10:21:18.023Z,100900.58
2018-10-02T10:22:21.456Z,100898.69
2018-10-02T10:23:24.900Z,100897.19
2018-10-02T10:24:28.355Z,100894.63
2018-10-02T10:25:31.830Z,100893.58
2018-10-02T10:26:35.338Z,100894.38
2018-10-02T10:27:38.771Z,100893.14
2018-10-02T10:28:42.360Z,100887.63
2018-10-02T10:29:45.701Z,100890.86
2018-10-02T10:30:49.230Z,100883.39
2018-10-02T10:31:52.756Z,100877.87
2018-10-02T10:32:56.252Z,100882.02
2018-10-02T10:33:59.996Z,100873.26
2018-10-02T10:35:03.636Z,100867.41
2018-10-02T10:36:07.029Z,100865.55
2018-10-02T10:37:10.437Z,100870.41
2018-10-02T10:38:13.930Z,100869.26
2018-10-02T10:39:17.404Z,100868.12
2018-10-02T10:40:20.835Z,100871.19
2018-10-02T10:41:24.377Z,100867.33
2018-10-02T10:42:27.855Z,100871.55
2018-10-02T10:43:31.355Z,100875.49
2018-10-02T10:44:34.787Z,100863.44
2018-10-02T10:45:38.222Z,100862.53
2018-10-02T10:46:41.730Z,100861.56
2018-10-02T10:47:45.251Z,100857.17
2018-10-02T10:48:48.649Z,100860.17
2018-10-02T10:49:52.091Z,100857.41
2018-10-02T10:50:55.571Z,100856.94
2018-10-02T10:51:58.963Z,100855.73
2018-10-02T10:53:02.452Z,100852.56
2018-10-02T10:54:05.898Z,100850.95
2018-10-02T10:55:20.347Z,100854.18
2018-10-02T10:56:23.928Z,100852.06
2018-10-02T10:57:27.365Z,100859.30
2018-10-02T10:58:30.913Z,100851.35
2018-10-02T10:59:34.326Z,100849.02
2018-10-02T11:00:37.790Z,100852.50
2018-10-02T11:01:41.691Z,100851.55
2018-10-02T11:02:45.217Z,100850.17
2018-10-02T11:03:48.664Z,100857.64
2018-10-02T11:04:52.119Z,100852.22
2018-10-02T11:05:55.558Z,100849.30
2018-10-02T11:06:59.032Z,100848.01
2018-10-02T11:08:02.434Z,100845.02
2018-10-02T11:09:08.384Z,100848.68
2018-10-02T11:10:11.849Z,100843.83
2018-10-02T11:11:15.293Z,100832.08
2018-10-02T11:12:18.889Z,100834.16
2018-10-02T11:13:22.300Z,100831.64
2018-10-02T11:14:25.786Z,100836.25
2018-10-02T11:15:30.758Z,100830.88
2018-10-02T11:16:34.211Z,100832.33
2018-10-02T11:17:37.664Z,100828.31
2018-10-02T11:18:41.116Z,100830.78
2018-10-02T11:19:44.560Z,100827.95
2018-10-02T11:20:48.112Z,100824.17
2018-10-02T11:21:51.593Z,100824.17
2018-10-02T11:22:55.027Z,100820.16
2018-10-02T11:23:58.484Z,100822.25
2018-10-02T11:25:02.445Z,100826.25
2018-10-02T11:26:05.912Z,100824.87
2018-10-02T11:27:09.412Z,100826.85
2018-10-02T11:28:12.830Z,100826.28
2018-10-02T11:29:16.414Z,100823.75
2018-10-02T11:30:19.887Z,100829.38
2018-10-02T11:31:23.407Z,100821.67
2018-10-02T11:32:26.874Z,100820.73
2018-10-02T11:33:30.306Z,100827.94
2018-10-02T11:34:33.707Z,100823.06
2018-10-02T11:35:37.193Z,100825.45
2018-10-02T11:36:40.728Z,100825.89
2018-10-02T11:37:44.771Z,100826.80
2018-10-02T11:38:48.422Z,100825.19
2018-10-02T11:39:51.897Z,100821.38
2018-10-02T11:40:55.312Z,100826.90
2018-10-02T11:41:58.788Z,100820.00
2018-10-02T11:43:02.230Z,100824.38
2018-10-02T11:44:05.785Z,100823.33
2018-10-02T11:45:09.216Z,100823.33
2018-10-02T11:46:13.022Z,100820.88
2018-10-02T11:47:16.703Z,100820.41
2018-10-02T11:48:20.416Z,100810.27
2018-10-02T11:49:24.274Z,100817.61
2018-10-02T11:50:28.121Z,100805.28
2018-10-02T11:51:31.934Z,100810.57
2018-10-02T11:52:35.524Z,100807.00
2018-10-02T11:53:39.178Z,100806.20
2018-10-02T11:54:42.871Z,100806.84
2018-10-02T11:55:46.640Z,100803.73
2018-10-02T11:56:50.555Z,100804.64
2018-10-02T11:57:54.211Z,100804.88
2018-10-02T11:58:58.071Z,100805.12
2018-10-02T12:00:01.967Z,100799.13
2018-10-02T12:01:06.071Z,100790.00
2018-10-02T12:02:09.913Z,100801.75
2018-10-02T12:03:13.749Z,100802.89
2018-10-02T12:04:18.337Z,100799.42
2018-10-02T12:05:21.936Z,100797.57
2018-10-02T12:06:25.471Z,100804.13
2018-10-02T12:07:29.124Z,100799.66
2018-10-02T12:08:32.594Z,100801.17